Time;durP1;ratioP1;P1;durP2;ratioP2;P2;SDS_P1;SDS_P2;PMS_P1;PMS_P2;Temp;Humidity;BMP_temperature;BMP_pressure;BME280_temperature;BME280_humidity;BME280_pressure;Samples;Min_cycle;Max_cycle;Signal;HPM_P1;HPM_P2
2022/05/06 00:02:11;;;;;;;29.50;19.33;;;11.10;99.90;;;;;;5072073;28;20047;-69
2022/05/06 00:04:36;;;;;;;25.90;17.05;;;11.00;99.90;;;;;;5072381;28;20032;-70
2022/05/06 00:07:03;;;;;;;30.65;17.92;;;11.00;99.90;;;;;;5071666;28;20246;-70
2022/05/06 00:09:29;;;;;;;25.98;17.10;;;11.00;99.90;;;;;;5072107;28;20050;-69
2022/05/06 00:11:54;;;;;;;27.73;18.33;;;11.00;99.90;;;;;;5071686;28;20083;-70
2022/05/06 00:14:20;;;;;;;27.95;18.25;;;11.00;99.90;;;;;;5072356;28;20106;-70
2022/05/06 00:16:45;;;;;;;26.63;17.90;;;10.90;99.90;;;;;;5070938;28;20047;-70
2022/05/06 00:19:12;;;;;;;29.80;18.20;;;10.90;99.90;;;;;;5072103;28;20458;-70
2022/05/06 00:21:37;;;;;;;29.60;17.67;;;10.90;99.90;;;;;;5071589;28;20047;-69
2022/05/06 00:24:04;;;;;;;31.85;17.25;;;10.90;99.90;;;;;;5072174;28;20119;-69
2022/05/06 00:26:31;;;;;;;27.42;17.48;;;10.80;99.90;;;;;;5071805;28;20506;-68
2022/05/06 00:28:56;;;;;;;30.33;17.13;;;10.80;99.90;;;;;;5071836;28;20045;-70
2022/05/06 00:31:22;;;;;;;26.52;16.50;;;10.90;99.90;;;;;;5071494;28;20042;-70
2022/05/06 00:33:48;;;;;;;28.85;16.90;;;10.80;99.90;;;;;;5071696;28;20043;-69
2022/05/06 00:36:17;;;;;;;26.25;16.35;;;10.80;99.90;;;;;;5070591;28;20032;-70
2022/05/06 00:38:42;;;;;;;27.05;16.75;;;10.80;99.90;;;;;;5072038;28;20044;-69
2022/05/06 00:41:09;;;;;;;26.00;16.67;;;10.70;99.90;;;;;;5071600;28;20048;-70
2022/05/06 00:43:39;;;;;;;27.33;17.15;;;10.70;99.90;;;;;;5071784;28;20166;-70
2022/05/06 00:46:08;;;;;;;25.00;16.40;;;10.70;99.90;;;;;;5071800;28;20047;-69
2022/05/06 00:48:34;;;;;;;27.30;17.05;;;10.60;99.90;;;;;;5071519;28;20056;-69
2022/05/06 00:51:01;;;;;;;23.05;15.93;;;10.60;99.90;;;;;;5071502;28;20036;-69
2022/05/06 00:53:27;;;;;;;24.52;17.45;;;10.60;99.90;;;;;;5071650;28;20044;-70
2022/05/06 00:55:55;;;;;;;25.85;16.75;;;10.60;99.90;;;;;;5071809;28;20406;-70
2022/05/06 00:58:29;;;;;;;28.05;17.23;;;10.60;99.90;;;;;;5071637;28;20434;-70
2022/05/06 01:00:54;;;;;;;25.52;16.88;;;10.60;99.90;;;;;;5071321;28;20520;-70
2022/05/06 01:03:20;;;;;;;27.17;17.42;;;10.60;99.90;;;;;;5071529;28;20032;-69
2022/05/06 01:05:47;;;;;;;29.00;17.63;;;10.60;99.90;;;;;;5071631;28;20044;-71
2022/05/06 01:08:12;;;;;;;27.20;16.90;;;10.50;99.90;;;;;;5071673;28;20051;-70
2022/05/06 01:10:38;;;;;;;31.73;18.27;;;10.50;99.90;;;;;;5073916;28;20040;-70
2022/05/06 01:13:04;;;;;;;25.88;17.65;;;10.50;99.90;;;;;;5075599;28;20040;-70
2022/05/06 01:15:30;;;;;;;30.15;18.75;;;10.40;99.90;;;;;;5057681;28;20036;-71
2022/05/06 01:17:57;;;;;;;28.67;17.17;;;10.50;99.90;;;;;;5075377;28;20036;-68
2022/05/06 01:20:23;;;;;;;27.42;17.40;;;10.40;99.90;;;;;;5075009;28;20503;-67
2022/05/06 01:22:53;;;;;;;27.48;18.55;;;10.40;99.90;;;;;;5075417;28;20036;-67
2022/05/06 01:25:23;;;;;;;25.00;15.02;;;10.40;99.90;;;;;;5075435;28;20037;-70
2022/05/06 01:27:52;;;;;;;25.30;15.38;;;10.40;99.90;;;;;;5075328;28;20075;-69
2022/05/06 01:30:44;;;;;;;27.80;16.73;;;10.40;99.90;;;;;;5074769;28;20047;-69
2022/05/06 01:33:12;;;;;;;28.65;15.93;;;10.40;99.90;;;;;;5074298;28;20063;-69
2022/05/06 01:35:41;;;;;;;29.55;17.77;;;10.30;99.90;;;;;;5075258;28;20036;-69
2022/05/06 01:38:08;;;;;;;24.20;15.93;;;10.20;99.90;;;;;;5075022;28;20040;-69
2022/05/06 01:40:39;;;;;;;27.05;17.25;;;10.20;99.90;;;;;;5074748;28;20054;-70
2022/05/06 01:43:10;;;;;;;24.88;17.23;;;10.20;99.90;;;;;;5074992;28;20186;-71
2022/05/06 01:45:37;;;;;;;28.83;17.50;;;10.10;99.90;;;;;;5074270;28;20040;-70
2022/05/06 01:48:03;;;;;;;28.70;17.30;;;10.10;99.90;;;;;;5057318;28;20040;-70
2022/05/06 01:50:32;;;;;;;26.10;16.85;;;10.10;99.90;;;;;;5075061;28;20044;-70
2022/05/06 01:52:59;;;;;;;27.33;17.10;;;10.10;99.90;;;;;;5074831;28;20551;-70
2022/05/06 01:55:24;;;;;;;25.77;17.10;;;10.00;99.90;;;;;;5074728;28;20502;-70
2022/05/06 01:57:50;;;;;;;24.75;16.30;;;10.00;99.90;;;;;;5074959;28;20090;-70
2022/05/06 02:00:16;;;;;;;23.02;16.05;;;10.00;99.90;;;;;;5074579;28;20533;-71
2022/05/06 02:02:41;;;;;;;28.77;15.73;;;10.00;99.90;;;;;;5074638;28;20075;-68
2022/05/06 02:05:17;;;;;;;21.40;14.93;;;9.90;99.90;;;;;;5074631;28;20045;-67
2022/05/06 02:07:46;;;;;;;19.90;14.40;;;9.90;99.90;;;;;;5074542;28;20566;-68
2022/05/06 02:10:12;;;;;;;18.83;12.73;;;9.90;99.90;;;;;;5074297;28;20040;-68
2022/05/06 02:12:38;;;;;;;17.98;12.32;;;9.90;99.90;;;;;;5074819;28;20398;-68
2022/05/06 02:15:05;;;;;;;18.25;11.02;;;9.80;99.90;;;;;;5074460;28;20041;-67
2022/05/06 02:17:30;;;;;;;12.25;9.48;;;9.80;99.90;;;;;;5074361;28;20582;-67
2022/05/06 02:19:56;;;;;;;12.30;8.90;;;9.80;99.90;;;;;;5073941;28;20174;-67
2022/05/06 02:22:22;;;;;;;11.43;8.93;;;9.70;99.90;;;;;;5073861;28;20085;-67
2022/05/06 02:24:47;;;;;;;14.50;10.13;;;9.70;99.90;;;;;;5074340;28;20048;-67
2022/05/06 02:27:13;;;;;;;12.45;8.77;;;9.60;99.90;;;;;;5072872;28;20040;-67
2022/05/06 02:33:12;;;;;;;11.93;8.95;;;9.60;99.90;;;;;;5074027;28;20041;-67
2022/05/06 02:35:11;;;;;;;15.07;9.63;;;9.60;99.90;;;;;;5073906;28;20053;-67
2022/05/06 02:37:36;;;;;;;15.75;9.60;;;9.50;99.90;;;;;;5074060;28;20051;-67
2022/05/06 02:40:03;;;;;;;14.38;10.50;;;9.50;99.90;;;;;;5073478;28;20124;-67
2022/05/06 02:42:28;;;;;;;13.80;9.57;;;9.50;99.90;;;;;;5073904;28;20059;-67
2022/05/06 02:44:54;;;;;;;12.75;9.90;;;9.50;99.90;;;;;;5073888;28;20502;-67
2022/05/06 02:47:19;;;;;;;15.00;10.77;;;9.40;99.90;;;;;;5077564;28;20493;-70
2022/05/06 02:49:45;;;;;;;14.70;11.35;;;9.50;99.90;;;;;;5085602;28;20051;-70
2022/05/06 02:52:10;;;;;;;18.23;12.57;;;9.40;99.90;;;;;;5093540;28;20036;-70
2022/05/06 02:54:36;;;;;;;18.88;12.98;;;9.40;99.90;;;;;;5086574;28;20047;-70
2022/05/06 02:57:02;;;;;;;20.60;13.18;;;9.40;99.90;;;;;;5085884;28;20035;-70
2022/05/06 02:59:31;;;;;;;21.13;12.32;;;9.40;99.90;;;;;;5093732;28;20508;-70
2022/05/06 03:01:56;;;;;;;13.73;10.30;;;9.40;99.90;;;;;;5091926;28;20048;-70
2022/05/06 03:04:22;;;;;;;15.15;10.60;;;9.40;99.90;;;;;;5093899;28;20131;-70
2022/05/06 03:06:48;;;;;;;20.48;11.57;;;9.40;99.90;;;;;;5093792;28;20048;-70
2022/05/06 03:09:14;;;;;;;10.13;7.72;;;9.40;99.90;;;;;;5093672;28;20052;-70
2022/05/06 03:11:39;;;;;;;11.35;8.23;;;9.30;99.90;;;;;;5093220;28;20038;-70
2022/05/06 03:14:05;;;;;;;16.25;10.73;;;9.30;99.90;;;;;;5093477;28;20089;-70
2022/05/06 03:16:30;;;;;;;18.00;11.60;;;9.20;99.90;;;;;;5093391;28;20097;-69
2022/05/06 03:18:59;;;;;;;20.27;12.95;;;9.20;99.90;;;;;;5092180;28;20036;-68
2022/05/06 03:21:25;;;;;;;19.15;12.15;;;9.20;99.90;;;;;;5091776;28;20481;-69
2022/05/06 03:23:50;;;;;;;15.60;10.55;;;9.20;99.90;;;;;;5093369;28;20042;-69
2022/05/06 03:26:16;;;;;;;16.60;10.02;;;9.10;99.90;;;;;;5093165;28;20097;-69
2022/05/06 03:28:43;;;;;;;10.07;8.20;;;9.10;99.90;;;;;;5086743;28;20444;-69
2022/05/06 03:31:11;;;;;;;10.70;8.45;;;9.10;99.90;;;;;;5084207;28;20032;-69
2022/05/06 03:33:37;;;;;;;15.63;9.60;;;9.10;99.90;;;;;;5091113;28;20036;-69
2022/05/06 03:36:03;;;;;;;18.30;11.65;;;9.00;99.90;;;;;;5093300;28;20515;-69
2022/05/06 03:38:28;;;;;;;17.27;10.73;;;9.10;99.90;;;;;;5093100;28;20425;-69
2022/05/06 03:40:55;;;;;;;13.48;9.63;;;9.00;99.90;;;;;;5092708;28;20135;-69
2022/05/06 03:43:21;;;;;;;12.63;9.75;;;9.00;99.90;;;;;;5092885;28;20044;-69
2022/05/06 03:45:46;;;;;;;16.58;12.18;;;9.00;99.90;;;;;;5091489;28;20051;-69
2022/05/06 03:48:12;;;;;;;16.55;11.20;;;9.00;99.90;;;;;;5093064;28;20040;-69
2022/05/06 03:53:24;;;;;;;19.00;11.95;;;9.10;99.90;;;;;;5092713;28;20036;-69
2022/05/06 03:55:50;;;;;;;17.17;11.43;;;9.10;99.90;;;;;;5092607;28;20032;-69
2022/05/06 03:58:15;;;;;;;11.55;8.95;;;9.10;99.90;;;;;;5092640;28;20162;-69
2022/05/06 04:00:41;;;;;;;12.65;9.50;;;9.10;99.90;;;;;;5092466;28;20119;-69
2022/05/06 04:03:07;;;;;;;18.55;13.00;;;9.10;99.90;;;;;;5092700;28;20040;-69
2022/05/06 04:05:33;;;;;;;21.75;15.18;;;9.20;99.90;;;;;;5092559;28;20036;-69
2022/05/06 04:08:00;;;;;;;27.13;16.65;;;9.20;99.90;;;;;;5091265;28;20044;-69
2022/05/06 04:10:26;;;;;;;20.88;13.90;;;9.30;99.90;;;;;;5092001;28;20028;-69
2022/05/06 04:12:53;;;;;;;14.63;10.30;;;9.30;99.90;;;;;;5092277;28;20049;-69
2022/05/06 04:15:19;;;;;;;18.65;12.20;;;9.30;99.90;;;;;;5092385;28;20410;-69
2022/05/06 04:17:45;;;;;;;18.08;12.10;;;9.30;99.90;;;;;;5091036;28;20044;-69
2022/05/06 04:25:41;;;;;;;14.02;10.50;;;9.40;99.90;;;;;;5092645;28;20040;-68
2022/05/06 04:28:07;;;;;;;15.82;9.90;;;9.30;99.90;;;;;;5092420;28;20028;-69
2022/05/06 04:30:34;;;;;;;10.52;8.52;;;9.30;99.90;;;;;;5091787;28;20620;-69
2022/05/06 04:33:00;;;;;;;12.50;8.77;;;9.30;99.90;;;;;;5090842;28;20401;-68
2022/05/06 04:35:25;;;;;;;11.55;8.85;;;9.30;99.90;;;;;;5092054;28;20043;-69
2022/05/06 04:37:51;;;;;;;13.45;10.10;;;9.30;99.90;;;;;;5091893;28;20032;-68
2022/05/06 04:40:17;;;;;;;22.38;12.90;;;9.30;99.90;;;;;;5090468;28;20047;-68
2022/05/06 04:42:45;;;;;;;21.10;14.80;;;9.30;99.90;;;;;;5090820;28;20044;-68
2022/05/06 04:45:10;;;;;;;28.33;18.27;;;9.30;99.90;;;;;;5092032;28;20135;-68
2022/05/06 04:47:37;;;;;;;31.58;18.42;;;9.30;99.90;;;;;;5091919;28;20062;-68
2022/05/06 04:50:03;;;;;;;31.33;19.13;;;9.30;99.90;;;;;;5090315;28;20433;-68
2022/05/06 04:52:29;;;;;;;29.95;18.98;;;9.30;99.90;;;;;;5091553;28;20040;-67
2022/05/06 04:54:54;;;;;;;35.05;21.10;;;9.30;99.90;;;;;;5091854;28;20105;-68
2022/05/06 04:57:20;;;;;;;31.25;20.92;;;9.30;99.90;;;;;;5069884;28;20051;-67
2022/05/06 04:59:48;;;;;;;31.23;20.08;;;9.30;99.90;;;;;;5071664;28;20036;-67
2022/05/06 05:02:17;;;;;;;34.05;20.80;;;9.30;99.90;;;;;;5071275;28;20051;-68
2022/05/06 05:04:43;;;;;;;28.20;19.80;;;9.50;99.90;;;;;;5071346;28;20406;-69
2022/05/06 05:07:10;;;;;;;32.75;22.40;;;9.50;99.90;;;;;;5071710;28;20041;-68
2022/05/06 05:09:35;;;;;;;37.08;21.30;;;9.60;99.90;;;;;;5071483;28;20397;-69
2022/05/06 05:12:01;;;;;;;36.88;23.42;;;9.70;99.90;;;;;;5071283;28;20044;-68
2022/05/06 05:14:27;;;;;;;43.83;24.35;;;9.70;99.90;;;;;;5071521;28;20110;-68
2022/05/06 05:16:52;;;;;;;40.78;25.38;;;9.80;99.90;;;;;;5071602;28;20042;-68
2022/05/06 05:19:18;;;;;;;43.13;25.00;;;9.90;99.90;;;;;;5071383;28;20045;-68
2022/05/06 05:21:43;;;;;;;41.78;23.98;;;9.90;99.90;;;;;;5070946;28;20073;-68
2022/05/06 05:24:09;;;;;;;45.78;24.90;;;9.90;99.90;;;;;;5071574;28;20041;-68
2022/05/06 05:26:34;;;;;;;48.35;27.60;;;10.00;99.90;;;;;;5071274;28;20048;-68
2022/05/06 05:29:01;;;;;;;41.58;25.83;;;9.90;99.90;;;;;;5071349;28;20115;-68
2022/05/06 05:31:26;;;;;;;34.53;21.48;;;10.00;99.90;;;;;;5069591;28;20497;-68
2022/05/06 05:33:52;;;;;;;33.70;23.13;;;10.00;99.90;;;;;;5070165;28;20079;-67
2022/05/06 05:36:21;;;;;;;33.78;21.38;;;9.90;99.90;;;;;;5070974;28;20386;-69
2022/05/06 05:38:46;;;;;;;33.65;23.13;;;9.90;99.90;;;;;;5071452;28;20040;-69
2022/05/06 05:41:12;;;;;;;37.78;24.33;;;9.90;99.90;;;;;;5071014;28;20044;-69
2022/05/06 05:49:06;;;;;;;40.35;25.48;;;9.80;99.90;;;;;;5071475;28;20040;-70
2022/05/06 05:51:34;;;;;;;37.72;23.80;;;9.70;99.90;;;;;;5090821;22;20047;-72
2022/05/06 05:54:00;;;;;;;46.50;27.65;;;9.80;99.90;;;;;;5048708;28;20039;-72
2022/05/06 05:56:26;;;;;;;37.60;24.65;;;10.00;99.90;;;;;;5051535;28;20563;-72
2022/05/06 05:58:51;;;;;;;42.03;25.63;;;10.20;99.90;;;;;;5054675;28;20044;-72
2022/05/06 06:01:18;;;;;;;40.60;23.52;;;10.30;99.90;;;;;;5054419;28;20045;-72
2022/05/06 06:03:43;;;;;;;40.72;23.90;;;10.40;99.90;;;;;;5034312;28;20056;-72
2022/05/06 06:06:10;;;;;;;39.42;23.33;;;10.60;99.90;;;;;;5033575;28;20053;-72
2022/05/06 06:08:35;;;;;;;38.10;22.25;;;10.70;99.90;;;;;;5032508;28;20073;-72
2022/05/06 06:11:03;;;;;;;33.67;20.48;;;10.80;99.90;;;;;;5032930;28;20069;-72
2022/05/06 06:13:30;;;;;;;35.90;20.80;;;10.80;99.90;;;;;;5034292;28;20044;-72
2022/05/06 06:15:56;;;;;;;35.42;21.73;;;10.80;99.90;;;;;;5033016;28;20041;-72
2022/05/06 06:18:26;;;;;;;34.88;22.40;;;10.80;99.90;;;;;;5016624;28;20084;-72
2022/05/06 06:20:55;;;;;;;37.58;21.70;;;10.80;99.90;;;;;;5033121;28;20436;-72
2022/05/06 06:23:21;;;;;;;38.80;22.52;;;10.80;99.90;;;;;;5034130;28;20057;-72
2022/05/06 06:25:47;;;;;;;35.88;23.05;;;10.90;99.90;;;;;;5033257;28;20068;-72
2022/05/06 06:28:12;;;;;;;34.78;22.27;;;10.80;99.90;;;;;;5033143;28;20038;-72
2022/05/06 06:30:38;;;;;;;39.67;23.58;;;10.80;99.90;;;;;;5033878;28;20044;-72
2022/05/06 06:33:04;;;;;;;35.47;22.92;;;11.00;99.90;;;;;;5032766;28;20534;-72
2022/05/06 06:35:29;;;;;;;37.28;23.58;;;11.20;99.90;;;;;;5034226;28;20403;-72
2022/05/06 06:37:55;;;;;;;41.35;23.52;;;11.30;99.90;;;;;;5034108;28;20104;-72
2022/05/06 06:40:21;;;;;;;38.90;25.40;;;11.40;99.90;;;;;;5032755;28;20042;-72
2022/05/06 06:42:47;;;;;;;38.80;24.65;;;11.40;99.90;;;;;;5032617;28;20610;-72
2022/05/06 06:45:12;;;;;;;41.60;25.73;;;11.40;99.90;;;;;;5032617;28;20034;-72
2022/05/06 06:47:39;;;;;;;40.55;25.90;;;11.40;99.90;;;;;;5032604;28;20120;-72
2022/05/06 06:50:05;;;;;;;41.05;25.70;;;11.30;99.90;;;;;;5033509;28;20042;-72
2022/05/06 06:52:31;;;;;;;44.55;26.30;;;11.30;99.90;;;;;;5032190;28;20503;-72
2022/05/06 06:54:57;;;;;;;46.72;27.58;;;11.50;99.90;;;;;;5032438;28;20123;-72
2022/05/06 06:57:23;;;;;;;39.65;26.15;;;11.50;99.90;;;;;;5032808;28;20045;-72
2022/05/06 06:59:48;;;;;;;44.83;27.42;;;11.70;99.90;;;;;;5032609;28;20048;-72
2022/05/06 07:02:14;;;;;;;40.53;26.02;;;11.70;99.90;;;;;;5032199;28;20565;-73
2022/05/06 07:04:39;;;;;;;43.72;26.52;;;11.70;99.90;;;;;;5032302;28;20041;-72
2022/05/06 07:12:34;;;;;;;42.15;26.13;;;12.40;99.90;;;;;;5032151;28;20041;-72
2022/05/06 07:15:01;;;;;;;40.88;26.17;;;12.30;99.90;;;;;;5032075;28;20038;-73
2022/05/06 07:17:27;;;;;;;40.28;26.00;;;12.30;99.90;;;;;;5032059;28;20053;-72
2022/05/06 07:19:52;;;;;;;44.30;25.27;;;12.40;99.90;;;;;;5031850;28;20124;-73
2022/05/06 07:22:18;;;;;;;41.40;24.70;;;12.30;99.90;;;;;;5031620;28;20116;-72
2022/05/06 07:24:44;;;;;;;42.67;25.55;;;12.40;99.90;;;;;;5031950;28;20119;-72
2022/05/06 07:27:09;;;;;;;44.60;25.63;;;12.50;99.90;;;;;;5031849;28;20080;-72
2022/05/06 07:29:35;;;;;;;41.63;25.00;;;12.70;99.90;;;;;;5015339;28;20107;-72
2022/05/06 07:32:00;;;;;;;41.47;24.58;;;12.70;99.90;;;;;;5014960;28;20037;-73
2022/05/06 07:34:26;;;;;;;35.65;23.33;;;12.80;99.90;;;;;;5031784;28;20120;-73
2022/05/06 07:36:52;;;;;;;35.42;21.95;;;12.90;99.90;;;;;;5015067;28;20038;-72
2022/05/06 07:39:17;;;;;;;34.47;23.83;;;12.90;99.90;;;;;;5031630;28;20132;-72
2022/05/06 07:41:43;;;;;;;31.17;21.38;;;12.90;99.90;;;;;;5031199;28;20041;-72
2022/05/06 07:44:09;;;;;;;33.67;22.10;;;12.90;99.90;;;;;;5015127;28;20041;-73
2022/05/06 07:46:36;;;;;;;40.00;23.83;;;12.90;99.90;;;;;;5031498;28;20042;-72
2022/05/06 07:49:02;;;;;;;39.00;24.33;;;12.70;99.90;;;;;;5031433;28;20080;-73
2022/05/06 07:51:28;;;;;;;41.10;24.08;;;12.80;99.90;;;;;;5030767;28;20042;-73
2022/05/06 07:53:55;;;;;;;42.53;25.60;;;12.70;99.90;;;;;;5031332;28;20037;-73
2022/05/06 07:56:25;;;;;;;38.35;23.70;;;12.80;99.90;;;;;;5031508;28;20037;-72
2022/05/06 07:58:52;;;;;;;39.60;25.42;;;12.80;99.90;;;;;;5031338;28;20068;-73
2022/05/06 08:04:32;;;;;;;40.97;25.10;;;12.80;99.90;;;;;;5030865;28;20127;-73
2022/05/06 08:06:50;;;;;;;42.28;23.90;;;13.00;99.90;;;;;;5030999;28;20535;-73
2022/05/06 08:09:15;;;;;;;40.30;24.00;;;13.20;99.90;;;;;;5031059;28;20042;-73
2022/05/06 08:11:41;;;;;;;36.30;22.10;;;13.30;99.90;;;;;;5030673;28;20037;-73
2022/05/06 08:14:07;;;;;;;40.75;23.58;;;13.40;99.90;;;;;;5030904;28;20038;-73
2022/05/06 08:16:32;;;;;;;39.67;23.13;;;13.60;99.90;;;;;;5031193;28;20038;-73
2022/05/06 08:18:58;;;;;;;33.97;21.15;;;13.90;99.90;;;;;;5031023;28;20088;-74
2022/05/06 08:21:23;;;;;;;34.67;20.95;;;14.10;99.90;;;;;;5030816;28;20042;-74
2022/05/06 08:23:49;;;;;;;33.22;19.98;;;14.40;99.90;;;;;;5030930;28;20048;-73
2022/05/06 08:26:15;;;;;;;33.28;20.60;;;14.60;99.90;;;;;;5030826;28;20095;-73
2022/05/06 08:28:40;;;;;;;33.58;20.58;;;14.60;99.90;;;;;;5030960;28;20048;-73
2022/05/06 08:31:06;;;;;;;33.28;20.15;;;14.70;99.90;;;;;;5030374;28;20047;-73
2022/05/06 08:33:31;;;;;;;36.00;21.23;;;14.80;99.90;;;;;;5030653;28;20033;-73
2022/05/06 08:35:57;;;;;;;31.88;20.83;;;15.00;99.90;;;;;;5030668;28;20415;-73
2022/05/06 08:38:22;;;;;;;30.98;19.80;;;15.20;99.90;;;;;;5032011;28;20037;-72
2022/05/06 08:40:49;;;;;;;32.28;19.73;;;15.20;99.90;;;;;;5030609;28;20042;-73
2022/05/06 08:43:15;;;;;;;31.08;20.40;;;15.20;99.90;;;;;;5031786;28;20033;-73
2022/05/06 08:51:12;;;;;;;28.25;18.15;;;15.00;99.90;;;;;;5031611;28;20081;-72
2022/05/06 08:53:39;;;;;;;25.38;16.98;;;15.10;99.90;;;;;;5030599;28;20053;-73
2022/05/06 08:56:05;;;;;;;24.88;16.73;;;15.10;99.90;;;;;;5031712;28;20042;-73
2022/05/06 08:58:37;;;;;;;26.40;16.60;;;15.20;99.90;;;;;;5030405;28;20053;-73
2022/05/06 09:01:08;;;;;;;24.80;15.68;;;15.20;99.90;;;;;;5030488;28;20041;-72
2022/05/06 09:03:37;;;;;;;26.00;15.68;;;15.20;99.90;;;;;;5030578;28;20116;-72
2022/05/06 09:06:03;;;;;;;21.00;14.20;;;15.20;99.90;;;;;;5030801;28;20411;-72
2022/05/06 09:08:36;;;;;;;22.75;14.88;;;15.30;99.90;;;;;;5030257;28;20049;-73
2022/05/06 09:11:09;;;;;;;21.85;13.75;;;15.50;99.90;;;;;;5029950;28;20092;-73
2022/05/06 09:13:36;;;;;;;20.15;12.77;;;15.80;99.90;;;;;;5030290;28;20062;-73
2022/05/06 09:19:20;;;;;;;20.10;13.98;;;16.50;99.90;;;;;;5030218;28;20045;-73
2022/05/06 09:22:05;;;;;;;22.73;14.13;;;16.80;99.90;;;;;;5030169;28;20045;-73
2022/05/06 09:24:32;;;;;;;20.85;13.40;;;17.20;99.90;;;;;;5030425;28;20041;-73
2022/05/06 09:27:14;;;;;;;18.13;12.80;;;17.20;99.90;;;;;;5030158;28;20103;-73
2022/05/06 09:29:46;;;;;;;18.75;13.25;;;17.60;99.90;;;;;;5030146;28;20046;-73
2022/05/06 09:32:24;;;;;;;18.90;13.02;;;17.70;99.90;;;;;;5033259;28;20103;-73
2022/05/06 09:34:58;;;;;;;17.65;12.45;;;17.90;99.90;;;;;;5033916;28;20041;-73
2022/05/06 09:37:31;;;;;;;16.23;11.30;;;17.90;99.90;;;;;;5035153;28;20483;-73
2022/05/06 09:40:20;;;;;;;12.48;9.98;;;17.90;99.90;;;;;;5017213;28;20052;-73
2022/05/06 09:42:55;;;;;;;11.15;8.13;;;18.00;99.90;;;;;;5035071;28;20045;-73
2022/05/06 09:45:34;;;;;;;10.60;7.88;;;18.10;97.50;;;;;;5033932;28;20030;-74
2022/05/06 09:48:01;;;;;;;10.55;8.43;;;18.20;99.90;;;;;;5035037;28;20037;-74
2022/05/06 09:50:35;;;;;;;13.65;10.30;;;18.30;99.90;;;;;;5033307;28;20075;-74
2022/05/06 09:53:02;;;;;;;12.52;9.57;;;18.40;99.90;;;;;;5033482;28;20044;-74
2022/05/06 09:55:29;;;;;;;12.02;9.23;;;18.40;99.90;;;;;;5033526;28;20045;-73
2022/05/06 09:57:59;;;;;;;13.10;9.52;;;18.30;99.90;;;;;;5033559;28;20041;-74
2022/05/06 10:00:26;;;;;;;11.43;7.80;;;18.40;99.00;;;;;;5033267;28;20136;-74
2022/05/06 10:02:52;;;;;;;12.27;9.18;;;18.40;99.90;;;;;;5033281;28;20041;-73
2022/05/06 10:05:18;;;;;;;11.98;8.95;;;18.40;98.00;;;;;;5034653;28;20477;-74
2022/05/06 10:07:44;;;;;;;14.52;8.98;;;18.60;98.70;;;;;;5033376;28;20041;-74
2022/05/06 10:10:21;;;;;;;12.02;8.45;;;18.70;99.00;;;;;;5034334;28;20095;-74
2022/05/06 10:12:53;;;;;;;8.68;7.35;;;18.80;97.00;;;;;;5033278;28;20033;-74
2022/05/06 10:15:23;;;;;;;8.47;6.67;;;18.90;97.40;;;;;;5033179;28;20037;-74
2022/05/06 10:17:57;;;;;;;9.63;7.30;;;18.80;97.30;;;;;;5034230;28;20319;-74
2022/05/06 10:20:43;;;;;;;11.15;7.38;;;18.90;96.10;;;;;;5016613;28;20127;-74
2022/05/06 10:23:15;;;;;;;9.18;7.15;;;19.00;96.10;;;;;;5033038;28;20081;-74
2022/05/06 10:25:40;;;;;;;8.77;6.57;;;19.00;92.40;;;;;;5033012;28;20422;-73
2022/05/06 10:34:23;;;;;;;7.90;5.60;;;18.70;92.80;;;;;;5034306;28;20045;-73
2022/05/06 10:36:53;;;;;;;8.32;6.40;;;18.70;95.50;;;;;;5032914;28;20044;-73
2022/05/06 10:39:26;;;;;;;7.43;6.30;;;18.70;92.40;;;;;;5032712;28;20529;-74
2022/05/06 10:42:03;;;;;;;7.80;6.40;;;18.60;90.70;;;;;;5033423;28;20058;-73
2022/05/06 10:44:36;;;;;;;9.90;6.85;;;18.60;93.10;;;;;;5032683;28;20116;-73
2022/05/06 10:47:11;;;;;;;8.25;5.90;;;18.60;92.50;;;;;;5034116;28;20039;-73
2022/05/06 10:49:40;;;;;;;5.90;5.15;;;18.70;94.00;;;;;;5032489;28;20602;-73
2022/05/06 10:52:23;;;;;;;6.20;5.15;;;18.80;94.00;;;;;;5032076;28;20084;-73
2022/05/06 10:54:50;;;;;;;5.88;4.93;;;18.80;90.80;;;;;;5032745;28;20491;-73
2022/05/06 10:57:17;;;;;;;6.47;5.45;;;18.90;92.60;;;;;;5016049;28;20124;-73
2022/05/06 11:00:02;;;;;;;7.40;5.30;;;19.10;93.90;;;;;;5033772;28;20045;-74
2022/05/06 11:02:37;;;;;;;5.18;4.50;;;19.00;88.60;;;;;;5032447;28;20462;-74
2022/05/06 11:05:11;;;;;;;7.25;4.78;;;19.00;93.30;;;;;;5032529;28;20403;-73
2022/05/06 11:07:38;;;;;;;6.97;5.38;;;18.90;90.00;;;;;;5032631;28;20478;-73
2022/05/06 11:10:21;;;;;;;5.20;4.70;;;18.80;88.50;;;;;;5031985;28;20045;-73
2022/05/06 11:12:48;;;;;;;7.18;4.88;;;18.80;90.40;;;;;;5032178;28;20060;-71
2022/05/06 11:15:15;;;;;;;8.88;5.50;;;19.20;85.30;;;;;;5033188;28;20136;-71
2022/05/06 11:17:42;;;;;;;6.15;5.28;;;19.50;83.30;;;;;;5031555;28;20565;-71
2022/05/06 11:20:23;;;;;;;5.57;4.60;;;19.60;81.40;;;;;;5030920;28;20569;-71
2022/05/06 11:23:02;;;;;;;6.00;4.63;;;19.80;81.70;;;;;;5045920;28;20457;-71
2022/05/06 11:25:40;;;;;;;6.97;4.85;;;19.90;83.40;;;;;;5053163;28;20044;-71
2022/05/06 11:28:20;;;;;;;6.07;5.05;;;19.80;78.30;;;;;;5051810;28;20040;-71
2022/05/06 11:30:48;;;;;;;5.10;4.53;;;20.00;79.20;;;;;;5052849;28;20037;-71
2022/05/06 11:33:27;;;;;;;4.88;4.40;;;20.10;75.20;;;;;;5051599;28;20040;-71
2022/05/06 11:36:05;;;;;;;7.18;5.28;;;20.00;72.40;;;;;;5052932;28;20037;-71
2022/05/06 11:38:33;;;;;;;5.78;3.88;;;20.20;72.70;;;;;;5052751;28;20137;-70
2022/05/06 11:41:09;;;;;;;5.63;3.92;;;20.20;70.90;;;;;;5052669;28;20452;-71
2022/05/06 11:43:35;;;;;;;4.30;3.90;;;20.10;68.10;;;;;;5051842;28;20144;-71
2022/05/06 11:48:46;;;;;;;5.10;3.55;;;20.10;68.20;;;;;;5052640;28;20045;-72
2022/05/06 11:51:15;;;;;;;3.83;2.85;;;20.10;71.50;;;;;;5050890;28;20115;-69
2022/05/06 11:53:43;;;;;;;4.13;3.00;;;20.10;70.30;;;;;;5041299;22;20049;-68
2022/05/06 11:56:09;;;;;;;3.47;2.70;;;20.20;66.70;;;;;;5012242;28;20073;-68
2022/05/06 11:58:36;;;;;;;4.15;2.70;;;20.40;66.00;;;;;;5012781;28;20073;-69
2022/05/06 12:01:02;;;;;;;5.25;3.05;;;20.30;66.40;;;;;;5020216;28;20042;-67
2022/05/06 12:03:28;;;;;;;6.13;2.95;;;20.30;68.20;;;;;;5017415;28;20120;-69
2022/05/06 12:06:04;;;;;;;5.25;2.50;;;20.10;65.80;;;;;;5011040;28;20388;-69
2022/05/06 12:08:32;;;;;;;8.02;3.28;;;20.20;64.30;;;;;;5010941;28;20038;-69
2022/05/06 12:11:05;;;;;;;5.65;2.95;;;20.10;64.90;;;;;;4994531;28;20103;-69
2022/05/06 12:13:38;;;;;;;3.30;2.40;;;20.20;65.80;;;;;;5011842;28;20041;-69
2022/05/06 12:16:04;;;;;;;;;;;20.20;67.10;;;;;;5012918;28;20053;-69
2022/05/06 12:18:30;;;;;;;3.63;1.50;;;20.40;68.10;;;;;;5011244;28;20276;-69
2022/05/06 12:20:56;;;;;;;1.98;1.13;;;20.30;65.80;;;;;;5011786;28;20053;-69
2022/05/06 12:23:30;;;;;;;2.42;1.80;;;20.20;63.60;;;;;;5010883;28;20049;-68
2022/05/06 12:25:56;;;;;;;3.50;1.40;;;20.20;63.80;;;;;;5012411;28;20126;-68
2022/05/06 12:28:23;;;;;;;2.95;1.60;;;20.00;64.40;;;;;;5013593;28;20467;-68
2022/05/06 12:30:56;;;;;;;2.30;1.42;;;20.00;65.60;;;;;;5020502;28;20052;-69
2022/05/06 12:33:33;;;;;;;2.70;1.98;;;19.80;63.80;;;;;;5014904;28;20400;-69
2022/05/06 12:36:08;;;;;;;3.05;1.48;;;19.80;64.40;;;;;;5011789;28;20041;-69
2022/05/06 12:38:40;;;;;;;3.28;2.10;;;19.90;65.70;;;;;;5011997;28;20048;-69
2022/05/06 12:41:24;;;;;;;3.72;2.17;;;20.00;65.40;;;;;;5010306;28;20061;-69
2022/05/06 12:43:51;;;;;;;3.55;2.08;;;20.00;64.30;;;;;;5011969;28;20113;-69
2022/05/06 12:46:26;;;;;;;2.85;1.73;;;19.80;66.40;;;;;;5011848;28;20074;-70
2022/05/06 12:51:39;;;;;;;5.90;2.15;;;19.90;66.30;;;;;;5011782;28;20045;-69
2022/05/06 12:54:05;;;;;;;2.53;1.90;;;20.00;65.60;;;;;;5009893;28;20563;-70
2022/05/06 12:56:30;;;;;;;3.20;1.90;;;20.00;65.20;;;;;;5010613;28;20034;-69
2022/05/06 12:58:56;;;;;;;1.85;1.45;;;20.10;67.00;;;;;;5010819;28;20045;-69
2022/05/06 13:01:22;;;;;;;3.05;1.80;;;20.20;67.70;;;;;;4994147;28;20128;-69
2022/05/06 13:03:48;;;;;;;2.58;1.70;;;20.40;66.60;;;;;;5011783;28;20121;-69
2022/05/06 13:06:14;;;;;;;3.03;1.77;;;20.40;66.70;;;;;;5013720;28;20578;-69
2022/05/06 13:08:39;;;;;;;2.70;1.75;;;20.50;66.40;;;;;;5014569;28;20038;-69
2022/05/06 13:11:05;;;;;;;4.55;1.60;;;20.50;66.80;;;;;;5014506;28;20037;-69
2022/05/06 13:13:30;;;;;;;3.17;2.10;;;20.70;66.60;;;;;;5015664;28;20084;-70
2022/05/06 13:15:59;;;;;;;3.40;2.00;;;20.50;66.00;;;;;;5014452;28;20400;-70
2022/05/06 13:18:25;;;;;;;2.30;1.70;;;20.30;66.20;;;;;;5015652;28;20478;-70
2022/05/06 13:20:50;;;;;;;1.92;1.50;;;20.60;65.60;;;;;;5015295;28;20535;-70
2022/05/06 13:23:16;;;;;;;2.60;1.17;;;20.80;66.90;;;;;;5015745;28;20041;-70
2022/05/06 13:25:41;;;;;;;3.65;1.58;;;21.00;66.40;;;;;;5015544;28;20033;-70